Time;durP1;ratioP1;P1;durP2;ratioP2;P2;SDS_P1;SDS_P2;PMS_P1;PMS_P2;Temp;Humidity;BMP_temperature;BMP_pressure;BME280_temperature;BME280_humidity;BME280_pressure;Samples;Min_cycle;Max_cycle;Signal;HPM_P1;HPM_P2
2022/07/02 00:02:11;;;;;;;10.10;7.95;;;;;;;20.76;60.04;94973.25;5133783;27;20042;-74
2022/07/02 00:04:37;;;;;;;8.80;7.85;;;;;;;20.70;60.20;94977.44;5116602;27;20030;-73
2022/07/02 00:07:03;;;;;;;8.27;7.47;;;;;;;20.67;60.58;94979.63;5099474;27;20080;-73
2022/07/02 00:09:28;;;;;;;9.18;8.20;;;;;;;20.70;60.12;94966.06;5134819;27;20019;-73
2022/07/02 00:11:58;;;;;;;8.65;7.85;;;;;;;20.66;60.16;94955.03;5116230;27;20030;-73
2022/07/02 00:14:24;;;;;;;9.05;8.00;;;;;;;20.69;60.09;94964.41;5116744;27;20058;-73
2022/07/02 00:16:49;;;;;;;10.93;8.38;;;;;;;20.57;60.38;94965.91;5134555;27;20049;-74
2022/07/02 00:19:15;;;;;;;8.63;7.72;;;;;;;20.60;60.31;94958.44;5115615;27;20015;-73
2022/07/02 00:21:40;;;;;;;9.68;8.43;;;;;;;20.65;60.30;94969.25;5116357;27;20377;-73
2022/07/02 00:24:07;;;;;;;8.75;7.88;;;;;;;20.68;59.80;94957.50;5116293;27;20019;-73
2022/07/02 00:26:34;;;;;;;9.25;8.35;;;;;;;20.65;59.65;94968.44;5133390;27;20036;-73
2022/07/02 00:29:23;;;;;;;10.32;8.15;;;;;;;20.69;59.50;94967.06;5116207;27;20515;-74
2022/07/02 00:31:52;;;;;;;9.13;7.80;;;;;;;20.55;59.93;94967.91;5134313;27;20113;-73
2022/07/02 00:34:17;;;;;;;13.60;8.43;;;;;;;20.57;59.65;94965.91;5133189;27;20023;-74
2022/07/02 00:36:46;;;;;;;8.55;7.40;;;;;;;20.63;59.45;94965.97;5116149;27;20031;-73
2022/07/02 00:39:11;;;;;;;9.15;8.02;;;;;;;20.61;59.82;94973.25;5098866;27;20023;-73
2022/07/02 00:41:37;;;;;;;8.68;7.88;;;;;;;20.55;59.69;94963.44;5116089;27;20034;-73
2022/07/02 00:44:03;;;;;;;8.65;7.85;;;;;;;20.46;59.80;94952.16;5098797;27;20038;-74
2022/07/02 00:46:29;;;;;;;8.57;7.70;;;;;;;20.61;59.58;94967.16;5133008;27;20056;-73
2022/07/02 00:48:54;;;;;;;9.38;8.27;;;;;;;20.64;59.80;94977.34;5115680;27;20031;-73
2022/07/02 00:51:20;;;;;;;8.38;7.68;;;;;;;20.65;59.68;94979.81;5132852;27;20046;-73
2022/07/02 00:53:45;;;;;;;9.43;7.70;;;;;;;20.64;60.03;94982.63;5115679;27;20031;-74
2022/07/02 00:56:10;;;;;;;8.65;7.85;;;;;;;20.64;59.55;94979.97;5133814;27;20507;-74
2022/07/02 00:58:36;;;;;;;8.73;7.82;;;;;;;20.64;59.36;94988.72;5132743;27;20469;-74
2022/07/02 01:01:01;;;;;;;10.18;8.02;;;;;;;20.62;59.76;94988.09;5133806;27;20047;-75
2022/07/02 01:03:27;;;;;;;8.60;7.80;;;;;;;20.55;59.58;94968.72;5133768;27;20015;-73
2022/07/02 01:05:52;;;;;;;8.68;7.88;;;;;;;20.59;59.70;94982.34;5132580;27;20043;-74
2022/07/02 01:11:21;;;;;;;9.35;8.45;;;;;;;20.42;60.35;94966.72;5110581;28;20448;-73
2022/07/02 01:13:47;;;;;;;9.48;8.02;;;;;;;20.44;60.20;94969.97;5110759;27;20035;-74
2022/07/02 01:16:12;;;;;;;9.70;8.15;;;;;;;20.35;60.44;94963.16;5132435;27;20424;-74
2022/07/02 01:18:37;;;;;;;9.40;8.35;;;;;;;20.31;60.53;94956.63;5132305;27;20023;-73
2022/07/02 01:21:03;;;;;;;8.57;7.78;;;;;;;20.29;60.75;94961.28;5132318;27;20477;-74
2022/07/02 01:23:29;;;;;;;8.40;7.60;;;;;;;20.25;60.65;94952.06;5098145;27;20083;-74
2022/07/02 01:25:54;;;;;;;8.85;7.93;;;;;;;20.18;61.07;94956.47;5131987;27;20470;-73
2022/07/02 01:28:20;;;;;;;9.40;8.32;;;;;;;20.06;61.35;94948.19;5114993;27;20057;-73
2022/07/02 01:30:46;;;;;;;8.65;7.85;;;;;;;20.08;61.43;94951.44;5130844;27;20412;-73
2022/07/02 01:33:12;;;;;;;8.73;7.88;;;;;;;20.02;61.58;94953.00;5114823;27;20110;-74
2022/07/02 01:35:37;;;;;;;9.60;8.60;;;;;;;19.95;61.89;94956.56;5133279;27;20050;-73
2022/07/02 01:38:03;;;;;;;9.60;8.60;;;;;;;19.93;61.93;94954.09;5131930;27;20064;-73
2022/07/02 01:40:28;;;;;;;8.70;7.90;;;;;;;19.96;61.72;94963.47;5131850;27;20476;-73
2022/07/02 01:42:54;;;;;;;12.48;8.60;;;;;;;19.92;61.86;94943.72;5133009;27;20076;-73
2022/07/02 01:45:19;;;;;;;8.75;7.85;;;;;;;20.00;61.73;94955.00;5133236;27;20035;-73
2022/07/02 01:47:44;;;;;;;9.57;8.35;;;;;;;19.86;61.88;94939.97;5114584;27;20038;-73
2022/07/02 01:50:10;;;;;;;9.88;8.55;;;;;;;19.80;62.32;94945.97;5132933;27;20042;-73
2022/07/02 01:52:35;;;;;;;9.60;8.65;;;;;;;19.86;61.94;94948.75;5114352;27;20076;-73
2022/07/02 01:55:01;;;;;;;9.13;8.23;;;;;;;19.84;62.21;94949.91;5132749;27;20096;-73
2022/07/02 01:57:30;;;;;;;9.77;8.88;;;;;;;19.77;62.35;94946.34;5131575;27;20488;-73
2022/07/02 01:59:56;;;;;;;10.02;8.48;;;;;;;19.75;62.67;94945.69;5114603;27;20645;-73
2022/07/02 02:02:21;;;;;;;10.10;9.10;;;;;;;19.56;62.96;94947.84;5114336;27;20035;-74
2022/07/02 02:04:47;;;;;;;9.80;8.82;;;;;;;19.57;63.17;94949.47;5132566;27;20381;-74
2022/07/02 02:07:12;;;;;;;9.68;8.68;;;;;;;19.57;62.95;94938.94;5131370;27;20027;-73
2022/07/02 02:09:38;;;;;;;9.82;8.82;;;;;;;19.60;63.13;94954.38;5097140;27;20027;-73
2022/07/02 02:12:04;;;;;;;9.43;8.52;;;;;;;19.61;63.11;94947.28;5131190;27;20027;-73
2022/07/02 02:14:29;;;;;;;9.80;8.90;;;;;;;19.63;62.89;94964.56;5132669;27;20031;-73
2022/07/02 02:16:55;;;;;;;9.20;8.30;;;;;;;19.64;62.84;94955.66;5132323;27;20030;-74
2022/07/02 02:19:20;;;;;;;9.98;8.80;;;;;;;19.59;63.25;94962.47;5131194;27;20416;-73
2022/07/02 02:21:46;;;;;;;10.18;8.48;;;;;;;19.69;62.78;94967.50;5131210;27;20080;-73
2022/07/02 02:24:11;;;;;;;9.85;8.85;;;;;;;19.73;62.65;94972.25;5132276;27;20432;-73
2022/07/02 02:26:37;;;;;;;9.45;8.57;;;;;;;19.71;62.48;94971.59;5132592;27;20031;-73
2022/07/02 02:29:02;;;;;;;10.00;9.00;;;;;;;19.70;62.58;94969.97;5113926;27;20077;-73
2022/07/02 02:31:28;;;;;;;10.25;9.20;;;;;;;19.64;62.64;94966.22;5131050;27;20035;-73
2022/07/02 02:33:53;;;;;;;12.52;9.02;;;;;;;19.74;62.30;94980.97;5132103;27;20034;-73
2022/07/02 02:36:18;;;;;;;9.50;8.60;;;;;;;19.60;62.48;94966.75;5130979;27;20382;-74
2022/07/02 02:38:46;;;;;;;9.77;8.80;;;;;;;19.63;62.49;94969.81;5132048;27;20046;-73
2022/07/02 02:41:11;;;;;;;9.65;8.68;;;;;;;19.73;62.61;94988.06;5097115;27;20024;-74
2022/07/02 02:43:37;;;;;;;10.00;8.93;;;;;;;19.59;63.07;94973.00;5113441;27;20050;-73
2022/07/02 02:46:03;;;;;;;9.90;8.93;;;;;;;19.66;62.99;94995.03;5130642;27;20158;-73
2022/07/02 02:48:28;;;;;;;10.13;8.52;;;;;;;19.56;63.46;94995.25;5132207;27;20038;-73
2022/07/02 02:50:54;;;;;;;10.93;9.30;;;;;;;19.57;63.24;94996.91;5131990;27;20019;-73
2022/07/02 02:53:20;;;;;;;9.73;8.82;;;;;;;19.62;63.16;94999.81;5130702;27;20042;-72
2022/07/02 02:55:45;;;;;;;10.77;9.10;;;;;;;19.63;63.09;95000.63;5131975;27;20031;-72
2022/07/02 02:58:11;;;;;;;11.80;8.88;;;;;;;19.66;63.11;94991.59;5130648;28;20404;-72
2022/07/02 03:00:36;;;;;;;9.82;8.82;;;;;;;19.54;63.28;94985.91;5130408;28;20108;-72
2022/07/02 03:03:03;;;;;;;10.30;9.30;;;;;;;19.58;63.16;94998.53;5131981;27;20056;-73
2022/07/02 03:05:28;;;;;;;9.80;8.90;;;;;;;19.53;63.28;95000.06;5113501;28;20405;-72
2022/07/02 03:07:54;;;;;;;10.85;9.13;;;;;;;19.46;62.89;94992.06;5130501;28;20035;-72
2022/07/02 03:10:19;;;;;;;10.60;8.80;;;;;;;19.60;62.79;95012.34;5130560;28;20031;-72
2022/07/02 03:12:45;;;;;;;10.43;9.35;;;;;;;19.56;63.36;95015.53;5113315;28;20046;-72
2022/07/02 03:15:10;;;;;;;9.98;9.07;;;;;;;19.37;63.39;95001.03;5113267;28;20031;-73
2022/07/02 03:17:36;;;;;;;10.25;9.10;;;;;;;19.51;63.48;95017.88;5130459;28;20039;-72
2022/07/02 03:20:02;;;;;;;9.75;8.75;;;;;;;19.51;63.31;95013.41;5130299;28;20023;-72
2022/07/02 03:22:27;;;;;;;9.85;8.90;;;;;;;19.57;63.02;95023.25;5131633;27;20489;-72
2022/07/02 03:24:53;;;;;;;10.02;9.02;;;;;;;19.60;62.73;95022.88;5130302;28;20083;-72
2022/07/02 03:27:18;;;;;;;11.48;9.35;;;;;;;19.64;62.89;95029.44;5130308;27;20401;-72
2022/07/02 03:29:44;;;;;;;10.23;8.82;;;;;;;19.69;62.70;95025.47;5130115;27;20020;-72
2022/07/02 03:32:09;;;;;;;11.05;9.20;;;;;;;19.66;62.53;95026.66;5130271;28;20046;-72
2022/07/02 03:34:34;;;;;;;10.15;9.15;;;;;;;19.58;62.93;95026.69;5130234;28;20412;-72
2022/07/02 03:37:00;;;;;;;10.13;9.23;;;;;;;19.54;63.17;95028.06;5130158;28;20054;-72
2022/07/02 03:39:25;;;;;;;10.13;9.07;;;;;;;19.55;63.47;95027.84;5113079;28;20072;-72
2022/07/02 03:41:51;;;;;;;10.20;9.10;;;;;;;19.55;63.34;95025.22;5131388;27;20035;-72
2022/07/02 03:44:17;;;;;;;10.48;9.48;;;;;;;19.50;63.62;95032.88;5130227;28;20515;-73
2022/07/02 03:46:42;;;;;;;11.65;9.50;;;;;;;19.61;63.43;95035.09;5113115;28;20042;-75
2022/07/02 03:49:07;;;;;;;11.13;9.32;;;;;;;19.52;63.27;95015.03;5130170;28;20027;-73
2022/07/02 03:51:33;;;;;;;9.65;8.75;;;;;;;19.72;62.98;95030.41;5130160;28;20034;-73
2022/07/02 03:53:58;;;;;;;12.32;9.18;;;;;;;19.70;62.87;95027.13;5131083;27;20402;-73
2022/07/02 03:56:24;;;;;;;10.18;9.27;;;;;;;19.75;63.07;95030.88;5133991;27;20500;-73
2022/07/02 03:58:49;;;;;;;10.20;8.98;;;;;;;19.82;62.80;95030.97;5135073;27;20039;-73
2022/07/02 04:01:16;;;;;;;10.88;9.52;;;;;;;19.89;62.79;95037.16;5135018;27;20104;-73
2022/07/02 04:03:41;;;;;;;10.63;9.23;;;;;;;19.82;63.01;95041.50;5116726;27;20031;-73
2022/07/02 04:06:06;;;;;;;9.63;8.68;;;;;;;19.93;62.93;95043.72;5116699;27;20043;-73
2022/07/02 04:08:32;;;;;;;10.32;9.32;;;;;;;20.00;63.09;95052.56;5134907;27;20397;-73
2022/07/02 04:10:57;;;;;;;10.18;9.18;;;;;;;20.16;62.36;95037.56;5135024;27;20446;-73
2022/07/02 04:13:23;;;;;;;10.63;9.45;;;;;;;21.12;59.54;95043.72;5116510;27;20424;-73
2022/07/02 04:15:48;;;;;;;9.63;8.63;;;;;;;22.18;56.25;95038.63;5133608;27;20042;-73
2022/07/02 04:18:14;;;;;;;9.30;8.38;;;;;;;23.08;53.55;95031.53;5133561;27;20035;-73
2022/07/02 04:20:39;;;;;;;9.30;8.40;;;;;;;23.85;51.14;95040.91;5134830;27;20027;-73
2022/07/02 04:23:04;;;;;;;9.85;8.85;;;;;;;24.71;49.11;95032.00;5134638;27;20416;-73
2022/07/02 04:25:30;;;;;;;9.98;8.93;;;;;;;25.73;46.46;95029.47;5134697;27;20023;-73
2022/07/02 04:27:56;;;;;;;9.02;8.23;;;;;;;26.74;43.91;95036.34;5133362;27;20043;-75
2022/07/02 04:30:21;;;;;;;10.25;8.40;;;;;;;27.56;42.20;95035.97;5116154;27;20026;-75
2022/07/02 04:32:47;;;;;;;8.30;7.60;;;;;;;28.24;40.70;95040.88;5115968;27;20498;-75
2022/07/02 04:35:12;;;;;;;9.15;8.25;;;;;;;28.91;39.09;95035.16;5115993;27;20019;-76
2022/07/02 04:37:38;;;;;;;9.27;8.30;;;;;;;29.30;38.30;95043.44;5134526;27;20034;-74
2022/07/02 04:40:04;;;;;;;8.35;7.60;;;;;;;29.84;37.08;95041.25;5133077;27;20552;-75
2022/07/02 04:42:30;;;;;;;8.88;8.02;;;;;;;30.49;35.55;95029.13;5133055;27;20112;-75
2022/07/02 04:44:55;;;;;;;10.35;7.93;;;;;;;30.60;36.13;95032.78;5132857;27;20034;-75
2022/07/02 04:47:21;;;;;;;9.27;8.15;;;;;;;30.57;36.53;95037.84;5116164;27;20043;-75
2022/07/02 04:49:46;;;;;;;8.77;7.97;;;;;;;29.99;37.55;95043.34;5115603;27;20416;-75
2022/07/02 04:52:12;;;;;;;11.90;8.55;;;;;;;27.36;42.71;95046.94;5133978;27;20470;-74
2022/07/02 04:54:38;;;;;;;10.95;8.38;;;;;;;26.14;47.29;95050.25;5132771;27;20038;-75
2022/07/02 04:57:03;;;;;;;9.43;8.52;;;;;;;25.52;49.55;95051.88;5115658;27;20031;-74
2022/07/02 04:59:29;;;;;;;9.43;8.43;;;;;;;25.50;49.05;95036.16;5115574;27;20027;-74
2022/07/02 05:01:54;;;;;;;10.63;7.90;;;;;;;25.46;49.46;95042.13;5132491;27;20112;-74
2022/07/02 05:04:20;;;;;;;9.20;8.30;;;;;;;25.34;48.69;95049.97;5132527;27;20035;-75
2022/07/02 05:06:45;;;;;;;9.25;8.35;;;;;;;25.11;48.75;95047.81;5134154;27;20427;-75
2022/07/02 05:09:10;;;;;;;9.63;8.63;;;;;;;25.12;49.31;95052.06;5133776;27;20061;-74
2022/07/02 05:11:36;;;;;;;9.43;8.52;;;;;;;25.05;49.80;95053.97;5132554;27;20103;-74
2022/07/02 05:14:01;;;;;;;9.73;8.77;;;;;;;24.90;50.56;95044.38;5115363;27;20163;-74
2022/07/02 05:16:27;;;;;;;9.38;8.45;;;;;;;24.79;49.99;95045.03;5115417;27;20027;-74
2022/07/02 05:18:52;;;;;;;10.02;9.13;;;;;;;24.65;50.55;95038.97;5098180;27;20479;-74
2022/07/02 05:21:18;;;;;;;9.60;8.65;;;;;;;24.87;49.92;95046.66;5132421;27;20035;-74
2022/07/02 05:23:43;;;;;;;9.75;8.85;;;;;;;25.06;49.73;95043.09;5133406;27;20057;-74
2022/07/02 05:26:08;;;;;;;11.40;9.18;;;;;;;24.95;51.92;95043.78;5132292;27;20389;-74
2022/07/02 05:28:34;;;;;;;11.27;9.93;;;;;;;25.16;50.14;95053.34;5132198;27;20653;-74
2022/07/02 05:30:59;;;;;;;14.63;9.85;;;;;;;25.10;49.63;95054.97;5132022;27;20031;-74
2022/07/02 05:33:25;;;;;;;12.43;10.35;;;;;;;25.27;48.96;95059.78;5114958;27;20038;-75
2022/07/02 05:35:51;;;;;;;11.43;9.75;;;;;;;25.27;48.88;95059.78;5133076;27;20027;-74
2022/07/02 05:38:17;;;;;;;11.73;9.95;;;;;;;25.38;48.60;95062.63;5131857;27;20410;-75
2022/07/02 05:40:43;;;;;;;11.30;9.60;;;;;;;25.35;47.83;95064.88;5114657;27;20041;-74
2022/07/02 05:43:08;;;;;;;10.82;9.77;;;;;;;25.28;48.42;95058.78;5131823;27;20027;-74
2022/07/02 05:45:33;;;;;;;10.55;9.55;;;;;;;25.22;47.86;95063.09;5114680;27;20035;-74
2022/07/02 05:47:59;;;;;;;10.77;9.70;;;;;;;25.29;48.06;95068.38;5114645;27;20076;-74
2022/07/02 05:50:24;;;;;;;12.45;10.50;;;;;;;25.25;48.83;95072.50;5132802;27;20512;-75
2022/07/02 05:52:50;;;;;;;11.50;10.40;;;;;;;25.28;48.76;95062.25;5132763;27;20039;-75
2022/07/02 05:55:15;;;;;;;11.38;10.23;;;;;;;25.07;49.67;95068.66;5132835;27;20101;-75
2022/07/02 05:57:41;;;;;;;13.45;10.00;;;;;;;25.20;50.12;95070.47;5131470;27;20042;-75
2022/07/02 06:00:07;;;;;;;14.43;10.45;;;;;;;25.39;49.36;95064.25;5131275;27;20473;-75
2022/07/02 06:02:33;;;;;;;15.80;9.75;;;;;;;25.48;48.33;95064.00;5131548;27;20110;-75
2022/07/02 06:04:58;;;;;;;11.85;9.60;;;;;;;25.61;47.56;95061.25;5114017;27;20030;-75
2022/07/02 06:07:57;;;;;;;12.98;10.32;;;;;;;25.71;48.29;95058.91;5132605;27;20027;-75
2022/07/02 06:10:18;;;;;;;14.23;10.32;;;;;;;25.80;47.95;95065.63;5131385;27;20292;-75
2022/07/02 06:12:52;;;;;;;14.80;11.20;;;;;;;25.88;48.32;95055.78;5131208;27;20023;-75
2022/07/02 06:15:18;;;;;;;13.80;10.95;;;;;;;25.72;48.55;95057.91;5114340;27;20035;-75
2022/07/02 06:17:44;;;;;;;10.77;9.65;;;;;;;25.88;47.58;95058.44;5130601;27;20463;-74
2022/07/02 06:20:10;;;;;;;13.23;9.82;;;;;;;25.99;48.70;95055.06;5113788;27;20030;-75
2022/07/02 06:22:36;;;;;;;13.05;9.05;;;;;;;26.12;47.72;95049.66;5131375;27;20031;-74
2022/07/02 06:25:01;;;;;;;12.55;8.80;;;;;;;26.12;46.96;95054.97;5130946;27;20485;-75
2022/07/02 06:27:27;;;;;;;9.35;8.45;;;;;;;26.26;47.70;95063.66;5132239;27;20034;-75
2022/07/02 06:29:53;;;;;;;10.13;9.20;;;;;;;26.47;47.02;95067.78;5113777;27;20031;-75
2022/07/02 06:32:19;;;;;;;11.63;8.55;;;;;;;26.40;46.09;95059.03;5132109;27;20035;-75
2022/07/02 06:34:44;;;;;;;10.20;8.85;;;;;;;26.61;46.45;95055.97;5130812;27;20031;-75
2022/07/02 06:37:10;;;;;;;10.02;9.02;;;;;;;26.78;45.78;95050.88;5130896;27;20156;-73
2022/07/02 06:39:36;;;;;;;10.82;9.73;;;;;;;27.05;43.50;95062.06;5113575;27;20023;-72
2022/07/02 06:42:19;;;;;;;10.45;9.40;;;;;;;27.09;43.48;95057.09;5130918;27;20027;-72
2022/07/02 06:44:50;;;;;;;10.38;9.45;;;;;;;27.09;44.46;95065.09;5130952;27;20393;-72
2022/07/02 06:47:16;;;;;;;10.77;9.75;;;;;;;27.30;45.01;95069.97;5114497;27;20095;-72
2022/07/02 06:49:42;;;;;;;11.40;10.00;;;;;;;27.50;45.09;95069.72;5113817;27;20216;-72
2022/07/02 06:52:08;;;;;;;11.65;9.80;;;;;;;27.63;44.92;95066.03;5113568;28;20122;-75
2022/07/02 06:54:34;;;;;;;10.55;9.60;;;;;;;27.85;45.16;95075.16;5113486;27;20027;-75
2022/07/02 06:56:59;;;;;;;14.50;12.93;;;;;;;27.96;44.58;95068.22;5130578;27;20027;-75
2022/07/02 06:59:25;;;;;;;11.05;9.93;;;;;;;28.10;44.69;95068.03;5130553;28;20024;-75
2022/07/02 07:01:50;;;;;;;11.05;10.00;;;;;;;28.25;44.11;95071.06;5130535;28;20050;-75
2022/07/02 07:04:16;;;;;;;13.27;10.38;;;;;;;28.42;43.23;95077.38;5113540;28;20027;-73
2022/07/02 07:06:51;;;;;;;11.30;9.95;;;;;;;28.47;43.95;95080.19;5130625;28;20065;-72
2022/07/02 07:09:17;;;;;;;14.02;10.13;;;;;;;28.59;43.89;95074.03;5130700;28;20027;-73
2022/07/02 07:11:42;;;;;;;13.18;10.90;;;;;;;28.70;43.05;95083.88;5096468;28;20415;-73
2022/07/02 07:14:08;;;;;;;12.75;10.48;;;;;;;28.85;42.43;95086.88;5130595;28;20027;-73
2022/07/02 07:16:33;;;;;;;11.95;10.02;;;;;;;28.85;43.11;95086.88;5130599;28;20373;-73
2022/07/02 07:19:03;;;;;;;14.30;11.00;;;;;;;28.67;42.26;95089.69;5113279;28;20027;-73
2022/07/02 07:21:28;;;;;;;13.55;10.93;;;;;;;28.76;42.40;95088.28;5131973;27;20031;-73
2022/07/02 07:23:54;;;;;;;11.60;10.50;;;;;;;28.79;43.00;95101.19;5130480;28;20434;-73
2022/07/02 07:26:19;;;;;;;13.40;10.85;;;;;;;28.88;43.18;95097.09;5131894;27;20723;-73
2022/07/02 07:28:45;;;;;;;12.60;10.48;;;;;;;28.89;42.87;95089.88;5115462;27;20051;-73
2022/07/02 07:31:10;;;;;;;12.93;10.70;;;;;;;28.99;42.75;95091.97;5117401;27;20027;-73
2022/07/02 07:33:36;;;;;;;12.00;10.82;;;;;;;29.10;42.79;95093.84;5134423;27;20042;-73
2022/07/02 07:36:02;;;;;;;14.70;10.90;;;;;;;29.07;42.55;95095.13;5135775;27;20027;-73
2022/07/02 07:38:28;;;;;;;15.82;10.50;;;;;;;28.89;43.72;95088.06;5134351;27;20079;-73
2022/07/02 07:40:53;;;;;;;11.68;10.57;;;;;;;29.12;43.21;95094.44;5134220;27;20035;-74
2022/07/02 07:43:19;;;;;;;11.10;9.75;;;;;;;29.28;42.84;95091.03;5135438;27;20035;-73
2022/07/02 07:45:46;;;;;;;20.00;11.27;;;;;;;29.42;43.23;95085.38;5116875;27;20027;-74
2022/07/02 07:48:12;;;;;;;15.82;11.55;;;;;;;29.56;41.72;95086.72;5135332;27;20069;-73
2022/07/02 07:50:38;;;;;;;12.90;10.52;;;;;;;29.58;41.44;95084.63;5117122;27;20027;-73
2022/07/02 07:53:03;;;;;;;14.40;11.93;;;;;;;29.41;40.92;95073.88;5116762;27;20046;-73
2022/07/02 07:55:29;;;;;;;12.70;11.40;;;;;;;29.33;41.46;95083.06;5135357;27;20046;-73
2022/07/02 07:57:54;;;;;;;13.80;11.32;;;;;;;29.27;41.22;95086.72;5116838;27;20461;-74
2022/07/02 08:00:20;;;;;;;14.63;11.48;;;;;;;29.29;42.82;95076.59;5134904;27;20046;-73
2022/07/02 08:02:45;;;;;;;13.10;10.93;;;;;;;29.56;42.62;95084.88;5133802;27;20428;-73
2022/07/02 08:05:11;;;;;;;18.13;11.00;;;;;;;29.64;40.89;95089.03;5135098;27;20050;-73
2022/07/02 08:07:39;;;;;;;11.05;9.95;;;;;;;29.64;41.14;95089.03;5133792;27;20035;-73
2022/07/02 08:10:06;;;;;;;15.07;11.50;;;;;;;29.47;42.37;95093.50;5133670;27;20058;-73
2022/07/02 08:12:32;;;;;;;17.88;11.00;;;;;;;29.42;41.87;95090.72;5133797;27;20503;-73
2022/07/02 08:14:59;;;;;;;16.23;12.00;;;;;;;29.29;41.44;95098.00;5116387;27;20070;-73
2022/07/02 08:17:25;;;;;;;19.20;10.98;;;;;;;29.17;43.40;95100.69;5116546;27;20035;-74
2022/07/02 08:19:50;;;;;;;13.27;10.57;;;;;;;29.20;41.66;95093.22;5116305;27;20027;-73
2022/07/02 08:22:16;;;;;;;13.38;9.98;;;;;;;29.36;42.18;95084.47;5133426;27;20512;-73
2022/07/02 08:24:41;;;;;;;12.48;9.70;;;;;;;29.62;39.72;95097.28;5116185;27;20489;-73
2022/07/02 08:27:07;;;;;;;15.20;10.70;;;;;;;29.75;39.62;95090.03;5133332;27;20090;-73
2022/07/02 08:29:32;;;;;;;11.63;10.45;;;;;;;29.91;40.17;95091.13;5134515;27;20027;-73
2022/07/02 08:31:57;;;;;;;17.65;10.30;;;;;;;30.05;39.69;95090.56;5133100;27;20034;-73
2022/07/02 08:34:23;;;;;;;14.45;10.23;;;;;;;30.12;38.33;95093.13;5133190;27;20049;-73
2022/07/02 08:36:48;;;;;;;12.02;10.82;;;;;;;30.21;38.54;95090.84;5133132;27;20604;-74
2022/07/02 08:39:14;;;;;;;13.52;9.80;;;;;;;30.32;39.40;95099.88;5132617;27;20503;-74
2022/07/02 08:41:40;;;;;;;13.40;10.52;;;;;;;30.45;38.55;95095.00;5134549;27;20023;-74
2022/07/02 08:44:06;;;;;;;13.70;9.52;;;;;;;30.60;37.59;95097.09;5115826;27;20188;-74
2022/07/02 08:46:31;;;;;;;13.18;9.93;;;;;;;30.72;36.55;95095.13;5133154;27;20035;-74
2022/07/02 08:48:57;;;;;;;14.93;10.32;;;;;;;30.90;37.68;95095.97;5132954;27;20116;-74
2022/07/02 08:51:22;;;;;;;12.32;10.05;;;;;;;31.07;37.85;95103.97;5098816;27;20027;-74
2022/07/02 08:53:47;;;;;;;12.13;9.73;;;;;;;31.21;36.85;95096.34;5098658;27;20580;-74
2022/07/02 08:56:13;;;;;;;14.98;9.45;;;;;;;31.34;35.79;95099.47;5134325;27;20027;-74
2022/07/02 08:58:39;;;;;;;11.13;10.00;;;;;;;31.37;35.00;95096.31;5115659;27;20080;-74
2022/07/02 09:01:06;;;;;;;16.38;10.52;;;;;;;31.42;35.90;95100.13;5098328;27;20047;-74
2022/07/02 09:03:31;;;;;;;11.45;9.13;;;;;;;31.54;35.51;95090.88;5115747;27;20027;-74
2022/07/02 09:05:56;;;;;;;13.50;10.80;;;;;;;31.67;35.23;95099.59;5115403;27;20042;-74
2022/07/02 09:08:22;;;;;;;12.50;9.65;;;;;;;31.73;35.63;95087.81;5132608;27;20027;-74
2022/07/02 09:10:48;;;;;;;11.55;9.55;;;;;;;31.82;36.44;95097.06;5115449;27;20036;-75
2022/07/02 09:13:14;;;;;;;13.05;9.18;;;;;;;31.89;36.00;95091.47;5115281;27;20031;-75
2022/07/02 09:15:39;;;;;;;11.32;9.15;;;;;;;31.86;34.23;95100.84;5115389;27;20063;-74
2022/07/02 09:18:05;;;;;;;14.73;8.35;;;;;;;31.85;34.68;95091.19;5115205;27;20517;-75
2022/07/02 09:20:30;;;;;;;10.90;7.70;;;;;;;31.90;34.49;95093.94;5115188;27;20423;-75
2022/07/02 09:22:56;;;;;;;9.32;7.75;;;;;;;31.96;34.24;95089.44;5132413;27;20515;-75
2022/07/02 09:25:25;;;;;;;8.50;7.32;;;;;;;32.01;32.89;95082.25;5132473;27;20439;-75
2022/07/02 09:28:04;;;;;;;10.02;7.60;;;;;;;32.07;34.81;95082.28;5115316;27;20031;-76
2022/07/02 09:30:31;;;;;;;10.27;7.00;;;;;;;32.10;31.96;95087.97;5133376;27;20039;-75
2022/07/02 09:35:41;;;;;;;8.65;7.10;;;;;;;32.00;33.33;95087.84;5117644;27;20045;-75
2022/07/02 09:38:11;;;;;;;7.88;7.05;;;;;;;32.06;33.66;95089.53;5114924;27;20035;-76
2022/07/02 09:40:57;;;;;;;8.48;7.68;;;;;;;32.17;33.67;95085.06;5114788;27;20035;-75
2022/07/02 09:43:30;;;;;;;11.52;7.80;;;;;;;32.21;33.51;95088.88;5131452;27;20046;-75
2022/07/02 09:45:56;;;;;;;9.15;8.23;;;;;;;31.84;33.02;95078.81;5132941;27;20031;-75
2022/07/02 09:48:21;;;;;;;9.10;7.25;;;;;;;31.74;33.70;95084.09;5131990;27;20027;-75
2022/07/02 09:50:47;;;;;;;8.35;7.47;;;;;;;31.72;33.39;95081.66;5133140;27;20042;-75
2022/07/02 09:53:12;;;;;;;9.85;7.53;;;;;;;31.81;33.37;95079.31;5132535;27;20027;-75
2022/07/02 09:55:38;;;;;;;10.65;7.43;;;;;;;31.75;33.58;95080.34;5114459;27;20055;-75
2022/07/02 09:58:04;;;;;;;11.27;7.93;;;;;;;31.92;34.05;95082.94;5131473;27;20081;-75
2022/07/02 10:00:31;;;;;;;10.52;7.60;;;;;;;32.01;32.62;95078.72;5132555;27;20469;-76
2022/07/02 10:02:57;;;;;;;10.93;7.65;;;;;;;32.02;32.37;95073.13;5114380;27;20063;-75
2022/07/02 10:05:24;;;;;;;13.05;7.53;;;;;;;31.96;32.65;95067.97;5114352;27;20023;-75
2022/07/02 10:07:51;;;;;;;11.07;7.50;;;;;;;32.13;32.74;95070.53;5131500;27;20110;-75
2022/07/02 10:10:17;;;;;;;8.75;7.65;;;;;;;32.21;32.58;95062.78;5131316;27;20405;-75
2022/07/02 10:12:43;;;;;;;12.10;7.15;;;;;;;32.21;32.55;95057.44;5096982;27;20046;-76
2022/07/02 10:15:09;;;;;;;9.07;7.18;;;;;;;32.09;32.23;95055.97;5131296;27;20434;-73
2022/07/02 10:17:35;;;;;;;9.98;7.53;;;;;;;32.15;33.68;95057.63;5114127;27;20023;-73
2022/07/02 10:20:02;;;;;;;8.52;7.18;;;;;;;32.21;33.65;95045.88;5113930;27;20035;-73
2022/07/02 10:22:27;;;;;;;10.27;6.88;;;;;;;32.36;34.30;95054.03;5131214;27;20064;-73
2022/07/02 10:24:53;;;;;;;9.38;7.38;;;;;;;32.27;32.74;95060.97;5132226;27;20023;-73
2022/07/02 10:27:18;;;;;;;9.73;7.70;;;;;;;31.99;32.81;95049.44;5131153;27;20027;-73
2022/07/02 10:29:44;;;;;;;9.25;7.30;;;;;;;32.05;34.23;95053.78;5113944;27;20023;-72
2022/07/02 10:32:40;;;;;;;7.63;6.82;;;;;;;32.01;33.65;95044.66;5114070;27;20541;-74
2022/07/02 10:35:14;;;;;;;9.93;7.60;;;;;;;32.07;33.59;95040.13;5118736;27;20054;-74
2022/07/02 10:37:40;;;;;;;8.18;7.30;;;;;;;32.09;33.28;95037.97;5131061;27;20039;-74
2022/07/02 10:40:06;;;;;;;7.38;6.75;;;;;;;32.11;33.38;95040.41;5130753;27;20076;-74
2022/07/02 10:43:01;;;;;;;8.10;6.97;;;;;;;32.18;32.16;95038.28;5132184;27;20480;-74
2022/07/02 10:45:27;;;;;;;8.05;7.22;;;;;;;32.18;33.77;95041.00;5117972;27;20035;-74
2022/07/02 10:47:56;;;;;;;9.50;7.25;;;;;;;31.97;32.18;95035.47;5113684;27;20035;-74
2022/07/02 10:50:25;;;;;;;7.80;7.03;;;;;;;31.99;33.42;95027.16;5131928;27;20023;-74
2022/07/02 10:52:51;;;;;;;8.82;7.07;;;;;;;31.95;32.50;95029.53;5130768;27;20091;-74
2022/07/02 10:55:29;;;;;;;8.00;7.20;;;;;;;31.87;33.78;95024.59;5130674;27;20081;-74
2022/07/02 10:58:19;;;;;;;8.68;6.93;;;;;;;31.99;34.26;95027.97;5096836;27;20304;-73
2022/07/02 11:00:44;;;;;;;10.02;7.60;;;;;;;32.13;34.12;95030.22;5122050;28;20100;-74
2022/07/02 11:03:28;;;;;;;8.80;6.95;;;;;;;32.21;33.82;95027.06;5113201;28;20047;-74
2022/07/02 11:06:03;;;;;;;10.57;6.93;;;;;;;32.30;33.15;95033.56;5130577;28;20019;-74
2022/07/02 11:08:37;;;;;;;9.13;6.80;;;;;;;32.38;33.29;95038.47;5132279;27;20036;-74
2022/07/02 11:11:02;;;;;;;8.77;7.68;;;;;;;32.25;33.40;95030.84;5130375;27;20110;-74
2022/07/02 11:13:35;;;;;;;8.00;7.20;;;;;;;32.41;33.62;95034.47;5113588;28;20515;-74
2022/07/02 11:16:00;;;;;;;8.25;6.93;;;;;;;32.43;33.33;95034.97;5130641;28;20034;-74
2022/07/02 11:18:26;;;;;;;10.80;7.22;;;;;;;32.27;32.19;95026.03;5113586;28;20101;-74
2022/07/02 11:20:52;;;;;;;7.38;6.55;;;;;;;32.25;33.34;95038.91;5113307;28;20020;-74
2022/07/02 11:23:17;;;;;;;9.90;7.35;;;;;;;32.07;32.70;95026.69;5113495;28;20038;-74
2022/07/02 11:25:42;;;;;;;7.97;7.13;;;;;;;32.06;33.24;95027.72;5113298;28;20100;-74
2022/07/02 11:28:08;;;;;;;7.95;6.65;;;;;;;32.11;33.51;95026.97;5131956;27;20035;-74
2022/07/02 11:30:33;;;;;;;9.68;7.00;;;;;;;32.04;33.11;95016.47;5130289;28;20024;-74